createdAt,value
2022-11-13T00:00:36.515Z,97604.84
2022-11-13T00:03:03.323Z,97617.81
2022-11-13T00:05:29.728Z,97620.56
2022-11-13T00:07:56.079Z,97636.28
2022-11-13T00:10:22.441Z,97651.19
2022-11-13T00:12:48.801Z,97661.69
2022-11-13T00:15:15.283Z,97691.47
2022-11-13T00:17:41.646Z,97707.19
2022-11-13T00:20:08.375Z,97721.41
2022-11-13T00:22:34.781Z,97748.47
2022-11-13T00:25:01.163Z,97759.81
2022-11-13T00:27:30.038Z,97774.59
2022-11-13T00:29:56.462Z,97783.28
2022-11-13T00:32:22.813Z,97792.97
2022-11-13T00:34:49.190Z,97801.75
2022-11-13T00:37:15.546Z,97800.06
2022-11-13T00:39:41.894Z,97807.22
2022-11-13T00:42:08.310Z,97826.44
2022-11-13T00:44:34.682Z,97824.91
2022-11-13T00:47:01.071Z,97825.72
2022-11-13T00:49:27.470Z,97823.22
2022-11-13T00:51:53.816Z,97844.09
2022-11-13T00:54:20.305Z,97843.09
2022-11-13T00:56:46.681Z,97844.84
2022-11-13T00:59:13.077Z,97853.75
2022-11-13T01:01:39.493Z,97859.94
2022-11-13T01:04:05.884Z,97866.78
2022-11-13T01:06:32.340Z,97859.84
2022-11-13T01:08:59.838Z,97865.25
2022-11-13T01:11:27.763Z,97875.72
2022-11-13T01:13:54.291Z,97886.25
2022-11-13T01:16:22.593Z,97881.19
2022-11-13T01:18:49.040Z,97879.66
2022-11-13T01:21:22.337Z,97897.03
2022-11-13T01:23:48.693Z,97907.53
2022-11-13T01:26:20.877Z,97906.81
2022-11-13T01:28:47.499Z,97910.25
2022-11-13T01:31:19.573Z,97900.78
2022-11-13T01:33:46.094Z,97904.41
2022-11-13T01:36:31.037Z,97887.19
2022-11-13T01:38:57.435Z,97878.50
2022-11-13T01:41:28.947Z,97859.34
2022-11-13T01:43:55.804Z,97867.38
2022-11-13T01:46:27.202Z,97870.88
2022-11-13T01:48:58.321Z,97877.19
2022-11-13T01:51:34.124Z,97879.84
2022-11-13T01:54:01.961Z,97883.47
2022-11-13T01:56:28.347Z,97889.56
2022-11-13T01:59:25.920Z,97900.03
2022-11-13T02:01:52.383Z,97904.44
2022-11-13T02:04:18.821Z,97894.09
2022-11-13T02:06:56.410Z,97893.31
2022-11-13T02:09:25.524Z,97890.88
2022-11-13T02:11:52.341Z,97895.41
2022-11-13T02:14:18.722Z,97905.03
2022-11-13T02:16:46.219Z,97916.34
2022-11-13T02:19:17.019Z,97920.13
2022-11-13T02:22:14.254Z,97935.66
2022-11-13T02:24:44.977Z,97954.81
2022-11-13T02:27:27.925Z,97978.28
2022-11-13T02:29:54.309Z,97971.38
2022-11-13T02:32:20.681Z,97989.59
2022-11-13T02:34:47.142Z,97993.22
2022-11-13T02:37:13.557Z,97986.41
2022-11-13T02:39:40.119Z,97996.81
2022-11-13T02:42:06.502Z,98017.66
2022-11-13T02:44:32.894Z,98042.03
2022-11-13T02:46:59.257Z,98043.91
2022-11-13T02:49:25.672Z,98045.56
2022-11-13T02:51:51.999Z,98062.97
2022-11-13T02:54:18.372Z,98067.47
2022-11-13T02:56:44.805Z,98087.44
2022-11-13T02:59:11.195Z,98107.34
2022-11-13T03:01:37.644Z,98117.06
2022-11-13T03:04:04.097Z,98137.09
2022-11-13T03:06:30.461Z,98127.59
2022-11-13T03:08:56.813Z,98130.34
2022-11-13T03:11:23.186Z,98152.09
2022-11-13T03:13:49.574Z,98163.50
2022-11-13T03:16:16.631Z,98154.94
2022-11-13T03:18:43.065Z,98152.41
2022-11-13T03:21:11.435Z,98147.28
2022-11-13T03:23:37.987Z,98161.28
2022-11-13T03:26:05.876Z,98156.22
2022-11-13T03:28:32.718Z,98146.78
2022-11-13T03:30:59.156Z,98147.56
2022-11-13T03:33:25.533Z,98140.81
2022-11-13T03:35:51.920Z,98149.47
2022-11-13T03:38:18.270Z,98139.34
2022-11-13T03:40:44.666Z,98149.78
2022-11-13T03:43:11.024Z,98145.47
2022-11-13T03:45:37.428Z,98143.84
2022-11-13T03:48:04.016Z,98153.38
2022-11-13T03:50:30.412Z,98156.13
2022-11-13T03:52:56.824Z,98165.72
2022-11-13T03:55:23.190Z,98172.66
2022-11-13T03:57:49.626Z,98158.03
2022-11-13T04:00:16.553Z,98152.00
2022-11-13T04:02:42.999Z,98152.00
2022-11-13T04:05:09.397Z,98160.75
2022-11-13T04:07:35.772Z,98178.03
2022-11-13T04:10:02.133Z,98183.31
2022-11-13T04:12:28.506Z,98181.66
2022-11-13T04:14:54.872Z,98190.38
2022-11-13T04:17:21.255Z,98197.22
2022-11-13T04:19:47.614Z,98202.69
2022-11-13T04:22:14.015Z,98216.50
2022-11-13T04:24:40.360Z,98213.13
2022-11-13T04:27:06.782Z,98203.63
2022-11-13T04:29:33.160Z,98192.38
2022-11-13T04:31:59.534Z,98193.25
2022-11-13T04:34:26.433Z,98193.28
2022-11-13T04:36:52.797Z,98204.56
2022-11-13T04:39:19.167Z,98212.28
2022-11-13T04:42:03.993Z,98202.88
2022-11-13T04:44:30.346Z,98197.81
2022-11-13T04:46:56.723Z,98199.69
2022-11-13T04:49:23.098Z,98191.03
2022-11-13T04:51:49.452Z,98152.25
2022-11-13T04:54:15.815Z,98122.13
2022-11-13T04:56:42.196Z,98108.22
2022-11-13T04:59:08.712Z,98092.59
2022-11-13T05:01:36.016Z,98087.44
2022-11-13T05:04:02.654Z,98076.22
2022-11-13T05:06:29.113Z,98068.66
2022-11-13T05:08:55.482Z,98039.56
2022-11-13T05:11:21.831Z,98015.41
2022-11-13T05:13:48.187Z,98006.69
2022-11-13T05:16:15.203Z,97996.16
2022-11-13T05:18:41.603Z,97985.81
2022-11-13T05:21:08.631Z,97989.28
2022-11-13T05:23:34.992Z,98010.16
2022-11-13T05:26:05.813Z,98020.50
2022-11-13T05:28:32.187Z,97999.75
2022-11-13T05:31:08.631Z,97998.06
2022-11-13T05:33:35.510Z,98011.13
2022-11-13T05:36:06.324Z,98013.75
2022-11-13T05:38:32.854Z,98023.25
2022-11-13T05:41:07.028Z,98034.63
2022-11-13T05:43:34.049Z,98047.53
2022-11-13T05:46:04.806Z,98060.53
2022-11-13T05:48:31.852Z,98060.53
2022-11-13T05:51:11.905Z,98069.28
2022-11-13T05:53:38.402Z,98084.88
2022-11-13T05:56:07.031Z,98092.72
2022-11-13T05:58:33.819Z,98103.22
2022-11-13T06:01:17.312Z,98119.75
2022-11-13T06:03:44.015Z,98130.97
2022-11-13T06:06:12.305Z,98144.84
2022-11-13T06:08:39.110Z,98145.72
2022-11-13T06:11:07.980Z,98154.34
2022-11-13T06:13:34.562Z,98174.22
2022-11-13T06:16:18.634Z,98158.78
2022-11-13T06:18:45.518Z,98167.38
2022-11-13T06:21:17.460Z,98164.03
2022-11-13T06:23:43.960Z,98178.69
2022-11-13T06:26:13.133Z,98160.75
2022-11-13T06:28:39.566Z,98168.38
2022-11-13T06:31:10.475Z,98176.09
2022-11-13T06:33:37.306Z,98162.31
2022-11-13T06:36:15.167Z,98157.19
2022-11-13T06:38:41.950Z,98145.13
2022-11-13T06:41:09.770Z,98133.06
2022-11-13T06:43:36.210Z,98126.94
2022-11-13T06:46:04.394Z,98117.41
2022-11-13T06:48:31.309Z,98092.34
2022-11-13T06:51:01.886Z,98077.81
2022-11-13T06:53:28.301Z,98056.19
2022-11-13T06:55:54.704Z,98036.19
2022-11-13T06:58:21.161Z,98016.19
2022-11-13T07:00:47.736Z,97984.97
2022-11-13T07:03:21.620Z,97964.03
2022-11-13T07:05:48.207Z,97923.53
2022-11-13T07:08:14.730Z,97902.69
2022-11-13T07:10:41.338Z,97863.84
2022-11-13T07:13:07.804Z,97838.03
2022-11-13T07:15:35.419Z,97815.69
2022-11-13T07:18:02.438Z,97800.53
2022-11-13T07:20:29.127Z,97757.53
2022-11-13T07:22:59.402Z,97725.41
2022-11-13T07:25:26.114Z,97717.91
2022-11-13T07:27:52.552Z,97687.81
2022-11-13T07:30:19.055Z,97628.19
2022-11-13T07:32:45.490Z,97538.75
2022-11-13T07:35:11.919Z,97503.97
2022-11-13T07:37:38.298Z,97465.47
2022-11-13T07:40:05.185Z,97425.41
2022-11-13T07:42:31.589Z,97402.66
2022-11-13T07:44:57.989Z,97374.84
2022-11-13T07:47:24.566Z,97370.31
2022-11-13T07:49:50.965Z,97378.06
2022-11-13T07:52:17.365Z,97400.97
2022-11-13T07:54:43.774Z,97385.47
2022-11-13T07:57:10.129Z,97371.78
2022-11-13T07:59:36.502Z,97354.34
2022-11-13T08:02:02.874Z,97346.38
2022-11-13T08:04:32.298Z,97336.56
2022-11-13T08:06:58.776Z,97321.63
2022-11-13T08:09:25.222Z,97304.81
2022-11-13T08:11:51.573Z,97283.09
2022-11-13T08:14:17.942Z,97271.53
2022-11-13T08:16:44.290Z,97266.38
2022-11-13T08:19:10.803Z,97245.50
2022-11-13T08:21:37.303Z,97232.44
2022-11-13T08:24:03.884Z,97212.44
2022-11-13T08:26:30.319Z,97185.50
2022-11-13T08:28:56.726Z,97164.59
2022-11-13T08:31:23.127Z,97126.13
2022-11-13T08:33:49.474Z,97099.13
2022-11-13T08:36:15.834Z,97063.16
2022-11-13T08:38:42.214Z,97039.13
2022-11-13T08:41:09.639Z,97012.97
2022-11-13T08:43:36.239Z,97000.81
2022-11-13T08:46:02.637Z,96985.91
2022-11-13T08:48:29.342Z,96981.41
2022-11-13T08:50:56.213Z,96954.16
2022-11-13T08:53:22.813Z,96914.53
2022-11-13T08:55:49.185Z,96897.63
2022-11-13T08:58:15.648Z,96874.66
2022-11-13T09:00:42.017Z,96854.97
2022-11-13T09:03:09.642Z,96847.03
2022-11-13T09:05:36.008Z,96846.84
2022-11-13T09:08:02.591Z,96842.38
2022-11-13T09:10:29.041Z,96838.78
2022-11-13T09:12:59.327Z,96821.09
2022-11-13T09:15:25.847Z,96804.97
2022-11-13T09:17:52.313Z,96787.28
2022-11-13T09:20:22.680Z,96772.16
2022-11-13T09:22:49.592Z,96747.31
2022-11-13T09:25:16.092Z,96732.00
2022-11-13T09:27:42.449Z,96700.91
2022-11-13T09:30:09.281Z,96663.56
2022-11-13T09:32:35.666Z,96628.94
2022-11-13T09:35:02.025Z,96600.25
2022-11-13T09:37:28.405Z,96565.53
2022-11-13T09:39:54.763Z,96532.59
2022-11-13T09:42:22.963Z,96487.56
2022-11-13T09:44:55.395Z,96451.97
2022-11-13T09:47:25.034Z,96397.00
2022-11-13T09:49:59.652Z,96327.84
2022-11-13T09:52:36.839Z,96263.78
2022-11-13T09:55:04.434Z,96199.47
2022-11-13T09:57:40.994Z,96089.38
2022-11-13T10:00:14.366Z,95946.56
2022-11-13T10:03:39.059Z,95877.72
2022-11-13T10:06:10.353Z,95339.69
2022-11-13T10:08:52.479Z,95314.31
2022-11-13T10:11:53.085Z,95320.22
2022-11-13T10:14:21.647Z,95283.56
2022-11-13T10:17:11.255Z,95257.97
2022-11-13T10:19:47.866Z,95227.47
2022-11-13T10:22:36.817Z,95188.84
2022-11-13T10:25:12.645Z,95151.81
2022-11-13T10:27:39.306Z,95161.63
2022-11-13T10:30:15.850Z,95133.00
2022-11-13T10:32:42.280Z,95144.28
2022-11-13T10:35:38.130Z,95150.97
2022-11-13T10:38:29.461Z,95157.84
2022-11-13T10:41:07.927Z,95181.63
2022-11-13T10:43:34.474Z,95230.81
2022-11-13T10:46:02.588Z,95285.88
2022-11-13T10:48:31.438Z,95320.38
2022-11-13T10:51:20.124Z,95387.13
2022-11-13T10:53:46.508Z,95440.88
2022-11-13T10:56:14.048Z,95466.63
2022-11-13T10:58:40.420Z,95488.00
2022-11-13T11:01:19.687Z,95501.69
2022-11-13T11:03:50.248Z,95513.44
2022-11-13T11:06:16.613Z,95514.19
2022-11-13T11:08:43.017Z,95521.72
2022-11-13T11:11:34.764Z,95557.00
2022-11-13T11:14:23.366Z,95547.63
2022-11-13T11:16:50.171Z,95621.22
2022-11-13T11:19:16.822Z,95674.16
2022-11-13T11:21:44.257Z,95730.41
2022-11-13T11:24:23.272Z,95770.75
2022-11-13T11:26:53.393Z,95815.09
2022-11-13T11:29:39.228Z,95836.63
2022-11-13T11:32:07.406Z,95855.28
2022-11-13T11:34:48.992Z,95874.19
2022-11-13T11:37:23.475Z,95887.09
2022-11-13T11:40:00.788Z,95887.47
2022-11-13T11:42:33.281Z,95929.91
2022-11-13T11:45:11.289Z,95960.66
2022-11-13T11:47:37.638Z,95991.38
2022-11-13T11:50:04.805Z,95995.25
2022-11-13T11:52:42.802Z,95994.97
2022-11-13T11:55:19.701Z,95996.06
2022-11-13T11:57:50.219Z,95965.63
2022-11-13T12:00:17.599Z,95939.25
2022-11-13T12:02:44.002Z,95941.75
2022-11-13T12:05:20.066Z,95918.38
2022-11-13T12:08:13.112Z,95902.47
2022-11-13T12:11:04.958Z,95919.22
2022-11-13T12:13:32.805Z,95905.25
2022-11-13T12:16:11.368Z,95906.19
2022-11-13T12:18:53.792Z,95903.19
2022-11-13T12:21:24.186Z,95921.44
2022-11-13T12:24:15.386Z,95925.00
2022-11-13T12:27:13.998Z,95928.06
2022-11-13T12:30:07.507Z,95925.59
2022-11-13T12:33:11.534Z,95939.84
2022-11-13T12:35:37.970Z,95970.72
2022-11-13T12:38:07.410Z,95982.09
2022-11-13T12:40:44.736Z,95989.47
2022-11-13T12:43:36.064Z,95981.66
2022-11-13T12:46:10.035Z,95963.41
2022-11-13T12:48:38.193Z,95962.63
2022-11-13T12:51:07.516Z,95950.13
2022-11-13T12:53:45.625Z,95937.09
2022-11-13T12:56:17.525Z,95937.66
2022-11-13T12:59:23.864Z,95915.19
2022-11-13T13:01:47.953Z,95910.50
2022-11-13T13:04:41.849Z,95882.81
2022-11-13T13:07:14.180Z,95858.72
2022-11-13T13:09:59.028Z,95839.50
2022-11-13T13:12:43.523Z,95836.19
2022-11-13T13:15:31.726Z,95809.88
2022-11-13T13:18:11.637Z,95783.84
2022-11-13T13:20:45.317Z,95745.44
2022-11-13T13:23:12.792Z,95714.16
2022-11-13T13:25:39.445Z,95688.13
2022-11-13T13:28:08.691Z,95667.59
2022-11-13T13:31:02.329Z,95624.66
2022-11-13T13:33:53.642Z,95588.06
2022-11-13T13:36:29.867Z,95582.28
2022-11-13T13:39:02.482Z,95574.25
2022-11-13T13:41:28.825Z,95558.75
2022-11-13T13:44:14.838Z,95510.78
2022-11-13T13:46:41.218Z,95462.78
2022-11-13T13:49:12.752Z,95457.88
2022-11-13T13:51:43.754Z,95449.38
2022-11-13T13:54:10.228Z,95442.84
2022-11-13T13:56:40.292Z,95449.97
2022-11-13T13:59:14.000Z,95437.44
2022-11-13T14:01:40.397Z,95411.06
2022-11-13T14:04:13.398Z,95386.28
2022-11-13T14:06:50.657Z,95378.94
2022-11-13T14:09:22.034Z,95367.88
2022-11-13T14:11:58.362Z,95364.59
2022-11-13T14:14:24.819Z,95341.53
2022-11-13T14:16:52.550Z,95320.41
2022-11-13T14:19:22.224Z,95315.19
2022-11-13T14:21:50.570Z,95302.81
2022-11-13T14:24:21.556Z,95290.78
2022-11-13T14:26:48.890Z,95282.00
2022-11-13T14:29:24.224Z,95271.56
2022-11-13T14:31:51.013Z,95259.53
2022-11-13T14:34:20.031Z,95256.09
2022-11-13T14:36:48.364Z,95251.06
2022-11-13T14:39:22.121Z,95230.59
2022-11-13T14:41:57.073Z,95220.97
2022-11-13T14:44:31.882Z,95223.59
2022-11-13T14:47:03.835Z,95207.81
2022-11-13T14:49:37.439Z,95203.28
2022-11-13T14:52:04.087Z,95194.50
2022-11-13T14:55:00.210Z,95188.59
2022-11-13T14:57:21.309Z,95172.81
2022-11-13T14:59:47.734Z,95176.91
2022-11-13T15:02:14.208Z,95174.31
2022-11-13T15:04:40.963Z,95159.34
2022-11-13T15:07:30.559Z,95146.97
2022-11-13T15:09:57.027Z,95145.34
2022-11-13T15:12:23.442Z,95148.59
2022-11-13T15:14:49.810Z,95130.06
2022-11-13T15:17:18.110Z,95132.97
2022-11-13T15:19:44.585Z,95113.81
2022-11-13T15:22:28.359Z,95114.75
2022-11-13T15:24:55.266Z,95111.84
2022-11-13T15:27:21.655Z,95114.59
2022-11-13T15:29:47.999Z,95110.22
2022-11-13T15:32:14.536Z,95099.94
2022-11-13T15:34:41.013Z,95093.13
2022-11-13T15:37:15.530Z,95082.56
2022-11-13T15:39:42.041Z,95075.38
2022-11-13T15:42:12.884Z,95075.06
2022-11-13T15:44:39.415Z,95077.00
2022-11-13T15:47:18.605Z,95066.28
2022-11-13T15:49:56.575Z,95047.06
2022-11-13T15:52:32.868Z,95053.25
2022-11-13T15:54:59.264Z,95053.91
2022-11-13T15:57:27.515Z,95066.28
2022-11-13T15:59:54.021Z,95070.81
2022-11-13T16:02:20.442Z,95074.72
2022-11-13T16:04:56.073Z,95089.03
2022-11-13T16:07:26.887Z,95072.47
2022-11-13T16:09:53.388Z,95077.34
2022-11-13T16:12:19.818Z,95069.53
2022-11-13T16:14:46.573Z,95071.19
2022-11-13T16:17:20.024Z,95065.97
2022-11-13T16:19:51.028Z,95064.00
2022-11-13T16:22:23.629Z,95061.72
2022-11-13T16:24:50.094Z,95082.56
2022-11-13T16:27:23.653Z,95087.13
2022-11-13T16:29:50.037Z,95094.13
2022-11-13T16:32:16.668Z,95102.78
2022-11-13T16:34:43.723Z,95110.59
2022-11-13T16:37:18.457Z,95120.03
2022-11-13T16:39:45.166Z,95130.75
2022-11-13T16:42:12.656Z,95140.19
2022-11-13T16:44:39.167Z,95151.75
2022-11-13T16:47:06.695Z,95151.28
2022-11-13T16:49:33.321Z,95150.31
2022-11-13T16:51:59.724Z,95175.56
2022-11-13T16:54:26.149Z,95183.19
2022-11-13T16:56:52.528Z,95212.81
2022-11-13T16:59:20.207Z,95219.66
2022-11-13T17:01:46.728Z,95250.44
2022-11-13T17:04:13.956Z,95265.06
2022-11-13T17:06:40.517Z,95303.66
2022-11-13T17:09:07.031Z,95317.31
2022-11-13T17:11:33.483Z,95343.09
2022-11-13T17:14:00.548Z,95365.56
2022-11-13T17:16:27.585Z,95398.78
2022-11-13T17:18:54.126Z,95445.81
2022-11-13T17:21:21.401Z,95488.75
2022-11-13T17:23:47.783Z,95566.09
2022-11-13T17:26:14.238Z,95613.28
2022-11-13T17:28:40.649Z,95647.78
2022-11-13T17:31:08.506Z,95699.09
2022-11-13T17:33:35.049Z,95729.97
2022-11-13T17:36:02.441Z,95752.84
2022-11-13T17:38:28.985Z,95767.13
2022-11-13T17:40:55.350Z,95785.78
2022-11-13T17:43:21.852Z,95809.63
2022-11-13T17:45:50.123Z,95832.13
2022-11-13T17:48:16.887Z,95863.09
2022-11-13T17:50:43.269Z,95880.66
2022-11-13T17:53:09.637Z,95902.00
2022-11-13T17:55:36.081Z,95912.97
2022-11-13T17:58:02.544Z,95918.44
2022-11-13T18:00:28.925Z,95920.91
2022-11-13T18:02:56.080Z,95908.56
2022-11-13T18:05:22.458Z,95908.72
2022-11-13T18:07:48.831Z,95923.34
2022-11-13T18:10:18.418Z,95917.44
2022-11-13T18:12:44.793Z,95910.19
2022-11-13T18:15:11.252Z,95916.75
2022-11-13T18:17:38.041Z,95923.03
2022-11-13T18:20:04.757Z,95936.59
2022-11-13T18:22:31.467Z,95953.94
2022-11-13T18:24:58.025Z,95952.56
2022-11-13T18:27:24.416Z,95963.50
2022-11-13T18:29:50.799Z,95977.41
2022-11-13T18:32:17.147Z,95966.44
2022-11-13T18:34:43.567Z,95960.09
2022-11-13T18:37:10.033Z,95969.94
2022-11-13T18:39:36.404Z,95972.66
2022-11-13T18:42:02.798Z,95998.47
2022-11-13T18:44:29.513Z,96022.38
2022-11-13T18:46:55.886Z,96043.63
2022-11-13T18:49:22.376Z,96060.69
2022-11-13T18:51:48.839Z,96073.34
2022-11-13T18:54:15.558Z,96097.31
2022-11-13T18:56:42.029Z,96115.88
2022-11-13T18:59:09.242Z,96145.31
2022-11-13T19:01:38.116Z,96178.56
2022-11-13T19:04:22.128Z,96186.16
2022-11-13T19:06:49.552Z,96158.78
2022-11-13T19:09:16.216Z,96139.88
2022-11-13T19:11:42.931Z,96140.16
2022-11-13T19:14:14.364Z,96138.47
2022-11-13T19:16:40.790Z,96151.00
2022-11-13T19:19:11.285Z,96165.16
2022-11-13T19:21:37.658Z,96177.66
2022-11-13T19:24:04.596Z,96175.06
2022-11-13T19:26:30.995Z,96164.22
2022-11-13T19:28:57.400Z,96128.72
2022-11-13T19:31:25.099Z,96106.06
2022-11-13T19:34:02.186Z,96100.06
2022-11-13T19:36:29.650Z,96099.22
2022-11-13T19:38:56.252Z,96106.31
2022-11-13T19:41:22.725Z,96107.38
2022-11-13T19:43:49.155Z,96110.19
2022-11-13T19:46:16.593Z,96143.47
2022-11-13T19:48:44.027Z,96165.41
2022-11-13T19:51:16.013Z,96195.31
2022-11-13T19:53:50.286Z,96204.06
2022-11-13T19:56:18.347Z,96199.13
2022-11-13T19:58:46.447Z,96207.81
2022-11-13T20:01:14.879Z,96225.50
2022-11-13T20:03:41.428Z,96227.84
2022-11-13T20:06:08.046Z,96200.03
2022-11-13T20:08:35.082Z,96170.56
2022-11-13T20:11:05.759Z,96144.63
2022-11-13T20:13:34.337Z,96134.03
2022-11-13T20:16:00.705Z,96120.94
2022-11-13T20:18:27.755Z,96105.25
2022-11-13T20:20:55.180Z,96051.97
2022-11-13T20:23:21.618Z,96031.78
2022-11-13T20:26:03.453Z,95991.44
2022-11-13T20:28:30.720Z,95952.75
2022-11-13T20:31:12.667Z,95921.69
2022-11-13T20:33:39.006Z,95848.97
2022-11-13T20:36:05.742Z,95808.56
2022-11-13T20:38:32.485Z,95733.69
2022-11-13T20:40:59.029Z,95631.66
2022-11-13T20:43:25.391Z,95543.53
2022-11-13T20:46:00.390Z,95481.59
2022-11-13T20:48:27.079Z,95417.09
2022-11-13T20:50:53.709Z,95372.53
2022-11-13T20:53:20.044Z,95347.13
2022-11-13T20:55:46.418Z,95308.81
2022-11-13T20:58:12.761Z,95285.16
2022-11-13T21:00:39.130Z,95256.97
2022-11-13T21:03:05.523Z,95228.41
2022-11-13T21:05:31.887Z,95219.63
2022-11-13T21:07:58.260Z,95191.75
2022-11-13T21:10:24.699Z,95179.41
2022-11-13T21:12:51.083Z,95176.97
2022-11-13T21:15:17.469Z,95182.97
2022-11-13T21:17:43.847Z,95185.88
2022-11-13T21:20:10.748Z,95201.06
2022-11-13T21:22:37.148Z,95209.31
2022-11-13T21:25:03.736Z,95227.38
2022-11-13T21:27:30.124Z,95219.56
2022-11-13T21:29:56.657Z,95220.03
2022-11-13T21:32:23.113Z,95208.66
2022-11-13T21:34:49.537Z,95193.88
2022-11-13T21:37:15.953Z,95192.41
2022-11-13T21:39:42.349Z,95180.38
2022-11-13T21:42:08.716Z,95171.63
2022-11-13T21:44:35.206Z,95163.69
2022-11-13T21:47:01.559Z,95142.78
2022-11-13T21:49:27.924Z,95138.25
2022-11-13T21:51:54.321Z,94704.97
2022-11-13T21:54:20.692Z,94710.44
2022-11-13T21:56:47.124Z,94696.50
2022-11-13T21:59:13.514Z,94683.34
2022-11-13T22:01:40.002Z,94676.22
2022-11-13T22:04:06.556Z,94671.88
2022-11-13T22:06:35.949Z,94680.63
2022-11-13T22:09:23.233Z,94666.66
2022-11-13T22:11:49.891Z,94678.69
2022-11-13T22:14:16.277Z,94677.34
2022-11-13T22:16:44.022Z,94675.72
2022-11-13T22:19:12.485Z,94673.28
2022-11-13T22:21:39.756Z,94690.66
2022-11-13T22:24:06.416Z,94714.31
2022-11-13T22:26:35.845Z,94746.13
2022-11-13T22:29:02.204Z,94769.78
2022-11-13T22:31:29.677Z,94791.84
2022-11-13T22:33:56.252Z,94805.94
2022-11-13T22:36:24.256Z,94832.19
2022-11-13T22:38:50.703Z,94853.13
2022-11-13T22:41:23.551Z,94875.16
2022-11-13T22:43:53.007Z,94867.38
2022-11-13T22:46:24.215Z,94857.50
2022-11-13T22:48:51.481Z,94885.56
2022-11-13T22:51:22.392Z,94925.91
2022-11-13T22:54:09.114Z,94936.78
2022-11-13T22:56:36.061Z,94922.81
2022-11-13T22:59:04.963Z,94952.69
2022-11-13T23:01:35.163Z,94969.88
2022-11-13T23:04:03.678Z,94966.31
2022-11-13T23:06:31.466Z,94938.59
2022-11-13T23:08:57.918Z,94909.72
2022-11-13T23:11:37.917Z,94878.13
2022-11-13T23:14:05.893Z,94841.31
2022-11-13T23:16:32.688Z,94819.41
2022-11-13T23:19:00.032Z,94803.03
2022-11-13T23:21:26.895Z,94797.03
2022-11-13T23:23:53.684Z,94798.66
2022-11-13T23:26:20.103Z,94790.72
2022-11-13T23:28:46.502Z,94763.94
2022-11-13T23:31:12.975Z,94762.63
2022-11-13T23:33:40.190Z,94782.88
2022-11-13T23:36:07.457Z,94779.78
2022-11-13T23:38:33.911Z,94796.41
2022-11-13T23:41:00.572Z,94809.53
2022-11-13T23:43:47.769Z,94819.94
2022-11-13T23:46:13.685Z,94818.31
2022-11-13T23:48:40.315Z,94808.28
2022-11-13T23:51:06.819Z,94786.56
2022-11-13T23:53:33.193Z,94780.34
2022-11-13T23:55:59.620Z,94764.16
2022-11-13T23:58:26.096Z,94754.44
